Portada
METAR-TAF:

METAR-TAF

Aeroports :

Adak, Alaska, Estats Units d'Amèrica

latitud: 51-52-40N, longitud: 176-38-45W, altitud: 6 m

Observació

L'informe es va fer fa 35 minuts, a les 03:56 UTC
Vent 9 kt del Nord
Temperatura 9°C
Humitat 81%
Pressió 1026 hPa
Visibilitat: 16.1 km
Cel clar

METAR: PADK 040356Z AUTO 35009KT 10SM CLR 09/06 A3030 RMK AO2 SLP260 T00940056

Hora: 20:31 (04:31 UTC)


TAF: manca

Observacions i pronòstics meteorològics de més de 4000 aeroports (METAR i TAF).

Les estacions disponibles són els punts grocs i vermells al mapa.

Posi el ratolí al punt desitjat per veure el nom de l'estació.

Feu clic per veure les observacions i els pronòstics meteorològics.

Per canviar el mapa: feu clic els botons verds amb una creu de color negre per apropar; al botó verd amb un guió per allunyar la imatge; o en les fletxes verdes per a mapes adjacents.


METAR-TAF: